Time;durP1;ratioP1;P1;durP2;ratioP2;P2;SDS_P1;SDS_P2;PMS_P1;PMS_P2;Temp;Humidity;BMP_temperature;BMP_pressure;BME280_temperature;BME280_humidity;BME280_pressure;Samples;Min_cycle;Max_cycle;Signal;HPM_P1;HPM_P2
2023/01/22 00:02:37;;;;;;;177.37;70.53;;;-0.50;99.90;;;;;;4419644;28;659926;-66
2023/01/22 00:05:24;;;;;;;109.53;45.37;;;-0.50;99.90;;;;;;4437208;28;659391;-65
2023/01/22 00:08:11;;;;;;;170.57;68.13;;;-0.50;99.90;;;;;;4419900;28;659509;-65
2023/01/22 00:10:59;;;;;;;369.73;135.47;;;-0.50;99.90;;;;;;4443372;28;659919;-65
2023/01/22 00:13:46;;;;;;;122.67;47.17;;;-0.50;99.90;;;;;;4417577;28;660805;-65
2023/01/22 00:16:33;;;;;;;207.88;78.22;;;-0.50;99.90;;;;;;4436622;28;661156;-65
2023/01/22 00:19:22;;;;;;;106.20;47.63;;;-0.40;99.90;;;;;;4416625;28;659813;-65
2023/01/22 00:22:11;;;;;;;239.23;100.57;;;-0.40;99.90;;;;;;4440044;28;659790;-65
2023/01/22 00:24:58;;;;;;;79.60;31.73;;;-0.40;99.90;;;;;;4414743;28;661601;-65
2023/01/22 00:27:45;;;;;;;84.50;36.07;;;-0.40;99.90;;;;;;4421587;28;658924;-66
2023/01/22 00:30:32;;;;;;;83.40;35.37;;;-0.50;99.90;;;;;;4442217;28;658525;-65
2023/01/22 00:33:20;;;;;;;116.70;43.67;;;-0.50;99.90;;;;;;4436495;28;658647;-66
2023/01/22 00:36:10;;;;;;;87.90;32.23;;;-0.40;99.90;;;;;;4439761;28;660040;-65
2023/01/22 00:38:57;;;;;;;103.10;35.97;;;-0.50;99.90;;;;;;4428161;28;658811;-65
2023/01/22 00:41:44;;;;;;;97.27;33.53;;;-0.50;99.90;;;;;;4437622;28;659773;-65
2023/01/22 00:44:32;;;;;;;92.47;35.60;;;-0.50;99.90;;;;;;4416087;28;658887;-64
2023/01/22 00:47:19;;;;;;;85.03;34.93;;;-0.50;99.90;;;;;;4438908;28;658358;-65
2023/01/22 00:50:07;;;;;;;78.07;31.27;;;-0.50;99.90;;;;;;4418284;28;658934;-66
2023/01/22 00:52:56;;;;;;;79.27;30.27;;;-0.40;99.90;;;;;;4439709;28;659078;-66
2023/01/22 00:55:51;;;;;;;81.00;29.97;;;-0.40;99.90;;;;;;4417153;28;659424;-65
2023/01/22 00:58:38;;;;;;;98.37;31.97;;;-0.40;99.90;;;;;;4420356;28;659305;-64
2023/01/22 01:01:25;;;;;;;117.97;36.40;;;-0.40;99.90;;;;;;4414584;28;658676;-65
2023/01/22 01:04:13;;;;;;;111.00;33.30;;;-0.40;99.90;;;;;;4436240;28;660677;-65
2023/01/22 01:07:00;;;;;;;101.33;33.30;;;-0.40;99.90;;;;;;4421539;28;660057;-66
2023/01/22 01:09:49;;;;;;;57.07;24.10;;;-0.40;99.90;;;;;;4440670;28;659586;-64
2023/01/22 01:12:36;;;;;;;59.37;23.27;;;-0.40;99.90;;;;;;4425661;28;658585;-65
2023/01/22 01:15:23;;;;;;;58.03;22.35;;;-0.40;99.90;;;;;;4437959;28;659669;-65
2023/01/22 01:18:13;;;;;;;38.63;18.20;;;-0.30;99.90;;;;;;4419085;28;658810;-64
2023/01/22 01:21:00;;;;;;;72.60;22.50;;;-0.40;99.90;;;;;;4426459;28;658487;-66
2023/01/22 01:23:48;;;;;;;69.40;22.63;;;-0.40;99.90;;;;;;4438697;28;659889;-65
2023/01/22 01:26:37;;;;;;;41.10;17.23;;;-0.40;99.90;;;;;;4431507;28;658355;-66
2023/01/22 01:29:24;;;;;;;53.70;19.43;;;-0.40;99.90;;;;;;4439749;28;658986;-64
2023/01/22 01:32:11;;;;;;;68.30;21.27;;;-0.40;99.90;;;;;;4421639;28;658326;-65
2023/01/22 01:34:59;;;;;;;63.17;20.97;;;-0.40;99.90;;;;;;4451278;28;659739;-65
2023/01/22 01:37:46;;;;;;;45.03;17.83;;;-0.40;99.90;;;;;;4414428;28;658559;-64
2023/01/22 01:40:34;;;;;;;57.93;21.13;;;-0.40;99.90;;;;;;4438890;28;658254;-64
2023/01/22 01:43:23;;;;;;;54.83;20.20;;;-0.40;99.90;;;;;;4421315;28;658615;-64
2023/01/22 01:46:15;;;;;;;78.27;26.73;;;-0.40;99.90;;;;;;4432042;28;658689;-65
2023/01/22 01:49:03;;;;;;;55.73;23.80;;;-0.40;99.90;;;;;;4419948;28;659343;-65
2023/01/22 01:51:50;;;;;;;59.37;25.13;;;-0.40;99.90;;;;;;4430345;28;658634;-66
2023/01/22 01:54:37;;;;;;;63.93;25.13;;;-0.40;99.90;;;;;;4443880;28;659155;-64
2023/01/22 01:57:27;;;;;;;55.57;23.03;;;-0.40;99.90;;;;;;4435183;28;658242;-65
2023/01/22 02:00:17;;;;;;;49.33;20.30;;;-0.40;99.90;;;;;;4440160;28;658174;-65
2023/01/22 02:03:04;;;;;;;61.03;23.10;;;-0.40;99.90;;;;;;4416651;28;658266;-64
2023/01/22 02:05:51;;;;;;;70.65;25.27;;;-0.40;99.90;;;;;;4419085;28;658288;-64
2023/01/22 02:08:39;;;;;;;62.97;22.63;;;-0.40;99.90;;;;;;4436632;28;659969;-64
2023/01/22 02:11:26;;;;;;;70.03;25.30;;;-0.40;99.90;;;;;;4414735;28;658460;-65
2023/01/22 02:14:14;;;;;;;49.30;18.73;;;-0.40;99.90;;;;;;4439153;28;659147;-65
2023/01/22 02:17:06;;;;;;;46.87;18.53;;;-0.50;99.90;;;;;;4413865;28;659072;-64
2023/01/22 02:19:53;;;;;;;36.17;16.20;;;-0.50;99.90;;;;;;4415499;28;659283;-64
2023/01/22 02:22:42;;;;;;;56.97;18.58;;;-0.50;99.90;;;;;;4421040;28;658778;-66
2023/01/22 02:25:29;;;;;;;53.57;19.47;;;-0.50;99.90;;;;;;4448800;28;659093;-65
2023/01/22 02:28:16;;;;;;;31.07;14.07;;;-0.50;99.90;;;;;;4421944;28;658985;-65
2023/01/22 02:31:03;;;;;;;29.27;13.80;;;-0.50;99.90;;;;;;4439250;28;659332;-65
2023/01/22 02:33:50;;;;;;;29.40;14.00;;;-0.50;99.90;;;;;;4414958;28;659519;-65
2023/01/22 02:36:38;;;;;;;32.47;14.27;;;-0.50;99.90;;;;;;4436650;28;659957;-64
2023/01/22 02:39:27;;;;;;;21.83;10.70;;;-0.50;99.90;;;;;;4421806;28;659115;-65
2023/01/22 02:42:14;;;;;;;23.97;11.63;;;-0.50;99.90;;;;;;4436643;28;658694;-65
2023/01/22 02:45:01;;;;;;;24.10;11.50;;;-0.50;99.90;;;;;;4417986;28;658964;-65
2023/01/22 02:47:49;;;;;;;23.47;12.07;;;-0.50;99.90;;;;;;4438164;28;659616;-64
2023/01/22 02:50:36;;;;;;;25.27;10.47;;;-0.60;99.90;;;;;;4427998;28;658595;-66
2023/01/22 02:53:23;;;;;;;24.10;10.37;;;-0.60;99.90;;;;;;4437846;28;658580;-65
2023/01/22 02:56:12;;;;;;;30.92;12.43;;;-0.60;99.90;;;;;;4419311;28;659484;-66
2023/01/22 02:59:00;;;;;;;44.83;15.40;;;-0.60;99.90;;;;;;4441507;28;658512;-65
2023/01/22 03:01:47;;;;;;;28.63;12.43;;;-0.50;99.90;;;;;;4425978;28;658822;-65
2023/01/22 03:04:34;;;;;;;28.67;11.63;;;-0.50;99.90;;;;;;4438672;28;658989;-65
2023/01/22 03:07:21;;;;;;;28.63;12.82;;;-0.60;99.90;;;;;;4418232;28;658821;-66
2023/01/22 03:10:11;;;;;;;43.10;15.60;;;-0.60;99.90;;;;;;4434241;28;660164;-64
2023/01/22 03:22:16;;;;;;;39.23;13.50;;;-0.60;99.90;;;;;;4415692;28;658779;-66
2023/01/22 03:25:03;;;;;;;26.52;11.57;;;-0.50;99.90;;;;;;4438546;28;659330;-65
2023/01/22 03:28:15;;;;;;;28.87;12.00;;;-0.60;99.90;;;;;;4420460;28;660155;-65
2023/01/22 03:31:04;;;;;;;63.20;22.23;;;-0.60;99.90;;;;;;4402344;28;659061;-65
2023/01/22 03:33:51;;;;;;;59.67;22.90;;;-0.60;99.90;;;;;;4433094;28;658919;-65
2023/01/22 03:36:38;;;;;;;45.43;18.00;;;-0.60;99.90;;;;;;4439765;28;659516;-65
2023/01/22 03:39:26;;;;;;;28.83;12.87;;;-0.60;99.90;;;;;;4420037;28;658365;-65
2023/01/22 03:42:13;;;;;;;26.27;12.30;;;-0.60;99.90;;;;;;4434587;28;659364;-64
2023/01/22 03:45:00;;;;;;;44.03;19.08;;;-0.60;99.90;;;;;;4426176;28;658459;-66
2023/01/22 03:47:50;;;;;;;53.90;21.60;;;-0.50;99.90;;;;;;4443303;28;659386;-65
2023/01/22 03:50:37;;;;;;;32.77;14.20;;;-0.60;99.90;;;;;;4416607;28;659861;-65
2023/01/22 03:53:24;;;;;;;31.40;14.30;;;-0.60;99.90;;;;;;4442781;28;659886;-65
2023/01/22 03:56:13;;;;;;;33.30;14.50;;;-0.60;99.90;;;;;;4423993;28;658631;-65
2023/01/22 03:59:00;;;;;;;30.75;14.00;;;-0.60;99.90;;;;;;4427315;28;661788;-65
2023/01/22 04:01:49;;;;;;;28.37;13.73;;;-0.60;99.90;;;;;;4455727;28;658820;-66
2023/01/22 04:04:38;;;;;;;38.67;16.50;;;-0.60;99.90;;;;;;4418740;28;659719;-65
2023/01/22 04:07:25;;;;;;;28.43;13.47;;;-0.60;99.90;;;;;;4424585;28;658851;-66
2023/01/22 04:10:12;;;;;;;24.20;12.03;;;-0.60;99.90;;;;;;4446600;28;659036;-65
2023/01/22 04:13:00;;;;;;;36.10;15.33;;;-0.60;99.90;;;;;;4432630;28;658576;-66
2023/01/22 04:15:47;;;;;;;28.50;14.10;;;-0.60;99.90;;;;;;4442715;28;658791;-65
2023/01/22 04:18:35;;;;;;;28.67;13.37;;;-0.60;99.90;;;;;;4437717;28;658290;-66
2023/01/22 04:21:24;;;;;;;25.80;11.57;;;-0.60;99.90;;;;;;4444144;28;658611;-65
2023/01/22 04:24:11;;;;;;;34.87;14.27;;;-0.60;99.90;;;;;;4418517;28;658912;-65
2023/01/22 04:26:58;;;;;;;25.80;11.98;;;-0.60;99.90;;;;;;4448660;28;658838;-65
2023/01/22 04:29:46;;;;;;;36.90;15.43;;;-0.60;99.90;;;;;;4416303;28;658548;-65
2023/01/22 04:32:33;;;;;;;30.07;13.10;;;-0.60;99.90;;;;;;4436841;28;662436;-65
2023/01/22 04:35:20;;;;;;;21.52;10.95;;;-0.60;99.90;;;;;;4426928;28;658688;-65
2023/01/22 04:38:11;;;;;;;26.33;12.93;;;-0.60;99.90;;;;;;4441588;28;658738;-65
2023/01/22 04:40:58;;;;;;;31.70;13.33;;;-0.60;99.90;;;;;;4417030;28;659385;-65
2023/01/22 04:43:46;;;;;;;25.53;12.70;;;-0.60;99.90;;;;;;4418192;28;658724;-65
2023/01/22 04:46:33;;;;;;;25.13;11.93;;;-0.60;99.90;;;;;;4439684;28;659671;-65
2023/01/22 04:49:20;;;;;;;21.27;10.40;;;-0.60;99.90;;;;;;4419697;28;658491;-65
2023/01/22 04:52:07;;;;;;;25.57;11.30;;;-0.60;99.90;;;;;;4445106;28;658236;-65
2023/01/22 04:54:57;;;;;;;24.60;12.00;;;-0.60;99.90;;;;;;4434312;28;659365;-66
2023/01/22 04:57:44;;;;;;;24.43;11.73;;;-0.60;99.90;;;;;;4438991;28;659054;-65
2023/01/22 05:00:31;;;;;;;20.73;10.93;;;-0.60;99.90;;;;;;4418242;28;658986;-65
2023/01/22 05:03:18;;;;;;;22.10;11.65;;;-0.70;99.90;;;;;;4438755;28;659509;-65
2023/01/22 05:06:06;;;;;;;28.57;13.37;;;-0.60;99.90;;;;;;4411695;28;658597;-66
2023/01/22 05:08:53;;;;;;;25.38;11.80;;;-0.70;99.90;;;;;;4442270;28;659756;-65
2023/01/22 05:11:42;;;;;;;21.67;10.27;;;-0.60;99.90;;;;;;4418314;28;658867;-66
2023/01/22 05:14:29;;;;;;;23.37;11.17;;;-0.60;99.90;;;;;;4438568;28;657961;-65
2023/01/22 05:17:16;;;;;;;20.93;9.43;;;-0.60;99.90;;;;;;4410991;28;658710;-65
2023/01/22 05:20:04;;;;;;;21.03;10.60;;;-0.60;99.90;;;;;;4432749;28;658540;-65
2023/01/22 05:22:51;;;;;;;24.33;11.70;;;-0.60;99.90;;;;;;4419433;28;659467;-64
2023/01/22 05:25:38;;;;;;;19.57;10.03;;;-0.60;99.90;;;;;;4438316;28;658837;-64
2023/01/22 05:28:27;;;;;;;24.47;10.80;;;-0.60;99.90;;;;;;4416010;28;658710;-65
2023/01/22 05:31:14;;;;;;;22.55;10.35;;;-0.70;99.90;;;;;;4435957;28;658766;-64
2023/01/22 05:34:01;;;;;;;35.70;13.73;;;-0.60;99.90;;;;;;4414567;28;658880;-64
2023/01/22 05:36:49;;;;;;;22.00;10.50;;;-0.70;99.90;;;;;;4439017;28;659174;-65
2023/01/22 05:39:36;;;;;;;26.03;12.00;;;-0.70;99.90;;;;;;4411819;28;658609;-65
2023/01/22 05:42:23;;;;;;;24.17;11.23;;;-0.70;99.90;;;;;;4439759;28;658970;-65
2023/01/22 05:45:12;;;;;;;24.53;11.00;;;-0.70;99.90;;;;;;4412387;28;658747;-65
2023/01/22 05:47:59;;;;;;;24.63;11.07;;;-0.60;99.90;;;;;;4435662;28;658664;-65
2023/01/22 05:50:46;;;;;;;31.67;13.30;;;-0.70;99.90;;;;;;4417043;28;659737;-65
2023/01/22 05:53:34;;;;;;;31.53;13.13;;;-0.70;99.90;;;;;;4435196;28;659164;-65
2023/01/22 05:56:21;;;;;;;27.88;11.68;;;-0.70;99.90;;;;;;4416601;28;658753;-65
2023/01/22 05:59:08;;;;;;;31.23;12.20;;;-0.70;99.90;;;;;;4436333;28;659786;-65
2023/01/22 06:01:57;;;;;;;24.50;11.00;;;-0.70;99.90;;;;;;4421051;28;658793;-65
2023/01/22 06:04:44;;;;;;;24.67;12.30;;;-0.60;99.90;;;;;;4440453;28;658940;-65
2023/01/22 06:07:31;;;;;;;25.23;11.17;;;-0.70;99.90;;;;;;4416232;28;659025;-65
2023/01/22 06:10:19;;;;;;;24.27;11.03;;;-0.60;99.90;;;;;;4442691;28;659062;-65
2023/01/22 06:13:06;;;;;;;27.77;11.97;;;-0.60;99.90;;;;;;4424243;28;658559;-65
2023/01/22 06:15:53;;;;;;;23.63;10.83;;;-0.60;99.90;;;;;;4441006;28;658641;-65
2023/01/22 06:18:42;;;;;;;23.00;11.20;;;-0.60;99.90;;;;;;4417548;28;659603;-64
2023/01/22 06:21:29;;;;;;;27.60;12.23;;;-0.60;99.90;;;;;;4444156;28;658682;-66
2023/01/22 06:24:16;;;;;;;24.73;10.90;;;-0.50;99.90;;;;;;4418809;28;658770;-65
2023/01/22 06:27:04;;;;;;;27.07;12.93;;;-0.60;99.90;;;;;;4454342;28;658652;-65
2023/01/22 06:29:51;;;;;;;30.03;14.50;;;-0.60;99.90;;;;;;4421566;28;659090;-64
2023/01/22 06:32:38;;;;;;;26.30;12.85;;;-0.50;99.90;;;;;;4441402;28;659037;-64
2023/01/22 06:35:27;;;;;;;24.37;11.77;;;-0.50;99.90;;;;;;4425772;28;659127;-65
2023/01/22 06:38:14;;;;;;;21.33;10.53;;;-0.50;99.90;;;;;;4439618;28;658956;-64
2023/01/22 06:41:01;;;;;;;23.30;10.93;;;-0.50;99.90;;;;;;4423302;28;658507;-65
2023/01/22 06:43:49;;;;;;;24.20;11.70;;;-0.50;99.90;;;;;;4438055;28;659749;-64
2023/01/22 06:46:36;;;;;;;24.70;12.00;;;-0.50;99.90;;;;;;4417761;28;658636;-64
2023/01/22 06:49:23;;;;;;;22.67;10.93;;;-0.50;99.90;;;;;;4446843;28;659388;-65
2023/01/22 06:52:12;;;;;;;23.95;11.07;;;-0.40;99.90;;;;;;4425801;28;659299;-65
2023/01/22 06:54:59;;;;;;;21.37;10.67;;;-0.40;99.90;;;;;;4445531;28;658554;-73
2023/01/22 06:57:46;;;;;;;22.60;10.53;;;-0.50;99.90;;;;;;4418917;28;658252;-73
2023/01/22 07:00:33;;;;;;;20.92;10.23;;;-0.40;99.90;;;;;;4439221;28;659720;-74
2023/01/22 07:03:21;;;;;;;22.47;10.10;;;-0.40;99.90;;;;;;4419214;28;659010;-74
2023/01/22 07:06:09;;;;;;;21.83;11.10;;;-0.30;99.90;;;;;;4439545;28;658816;-73
2023/01/22 07:08:58;;;;;;;24.00;10.82;;;-0.30;99.90;;;;;;4430548;28;658796;-73
2023/01/22 07:11:45;;;;;;;19.00;9.33;;;-0.30;99.90;;;;;;4434084;28;659048;-73
2023/01/22 07:14:32;;;;;;;19.63;9.23;;;-0.30;99.90;;;;;;4445083;28;658524;-72
2023/01/22 07:17:20;;;;;;;23.53;10.73;;;-0.30;99.90;;;;;;4440259;28;657567;-73
2023/01/22 07:20:09;;;;;;;19.43;9.60;;;-0.30;99.90;;;;;;4449998;28;659490;-73
2023/01/22 07:22:57;;;;;;;18.93;8.97;;;-0.20;99.90;;;;;;4434056;28;657701;-73
2023/01/22 07:25:47;;;;;;;19.17;9.30;;;-0.20;99.90;;;;;;4438151;28;658357;-73
2023/01/22 07:28:34;;;;;;;18.30;10.07;;;-0.20;99.90;;;;;;4444129;28;657283;-73
2023/01/22 07:31:21;;;;;;;27.10;11.13;;;-0.20;99.90;;;;;;4425871;28;658941;-73
2023/01/22 07:34:09;;;;;;;46.63;15.55;;;-0.10;99.90;;;;;;4441730;28;659057;-73
2023/01/22 07:36:56;;;;;;;57.97;18.90;;;-0.10;99.90;;;;;;4416453;28;658971;-73
2023/01/22 07:39:44;;;;;;;27.57;11.53;;;-0.10;99.90;;;;;;4439316;28;658936;-73
2023/01/22 07:42:32;;;;;;;75.30;24.37;;;0.00;99.90;;;;;;4409124;28;658715;-74
2023/01/22 07:45:21;;;;;;;156.40;37.00;;;0.00;99.90;;;;;;4435024;28;657624;-73
2023/01/22 07:48:09;;;;;;;59.67;20.27;;;0.10;99.90;;;;;;4444121;28;659138;-73
2023/01/22 07:50:59;;;;;;;80.50;28.47;;;0.20;99.90;;;;;;4420486;28;657736;-73
2023/01/22 07:53:46;;;;;;;38.67;17.50;;;0.30;99.90;;;;;;4423597;28;658301;-74
2023/01/22 07:56:33;;;;;;;46.17;21.10;;;0.40;99.90;;;;;;4439171;28;658235;-73
2023/01/22 07:59:22;;;;;;;24.73;11.10;;;0.60;99.90;;;;;;4416296;28;658472;-73
2023/01/22 08:02:13;;;;;;;21.40;10.70;;;0.60;99.90;;;;;;4448982;28;657364;-73
2023/01/22 08:05:01;;;;;;;26.00;10.90;;;0.60;99.90;;;;;;4403671;28;660815;-73
2023/01/22 08:07:48;;;;;;;23.30;10.97;;;0.70;99.90;;;;;;4442158;28;658563;-73
2023/01/22 08:10:35;;;;;;;26.70;11.75;;;0.60;99.90;;;;;;4421331;28;657786;-73
2023/01/22 08:13:22;;;;;;;30.30;12.20;;;0.60;99.90;;;;;;4444593;28;657708;-73
2023/01/22 08:16:12;;;;;;;28.10;13.60;;;0.60;99.90;;;;;;4435434;28;657660;-73
2023/01/22 08:18:59;;;;;;;33.37;14.77;;;0.70;99.90;;;;;;4440612;28;656959;-73
2023/01/22 08:21:46;;;;;;;45.13;16.90;;;0.60;99.90;;;;;;4416595;28;657807;-73
2023/01/22 08:24:34;;;;;;;35.60;16.45;;;0.60;99.90;;;;;;4436239;28;658542;-73
2023/01/22 08:27:21;;;;;;;27.37;12.93;;;0.70;99.90;;;;;;4411285;28;657816;-73
2023/01/22 08:30:11;;;;;;;26.20;13.27;;;0.70;99.90;;;;;;4435916;28;658259;-73
2023/01/22 08:33:01;;;;;;;27.23;13.20;;;0.80;99.90;;;;;;4411830;28;657925;-73
2023/01/22 08:35:48;;;;;;;27.33;14.40;;;0.90;99.90;;;;;;4414537;28;658021;-73
2023/01/22 08:38:36;;;;;;;27.27;14.60;;;1.00;99.90;;;;;;4426881;28;657681;-73
2023/01/22 08:41:23;;;;;;;28.13;14.07;;;0.90;99.90;;;;;;4440751;28;657328;-73
2023/01/22 08:44:12;;;;;;;35.95;15.50;;;1.00;99.90;;;;;;4418713;28;657998;-73
2023/01/22 08:46:59;;;;;;;34.27;16.03;;;1.00;99.90;;;;;;4443062;28;657479;-74
2023/01/22 08:49:48;;;;;;;54.70;24.23;;;1.10;99.90;;;;;;4412231;28;657747;-74
2023/01/22 08:52:35;;;;;;;51.55;21.75;;;1.10;99.90;;;;;;4423368;28;658273;-74
2023/01/22 08:55:23;;;;;;;30.67;15.37;;;1.20;99.90;;;;;;4438639;28;658158;-73
2023/01/22 08:58:10;;;;;;;27.73;14.03;;;1.20;99.90;;;;;;4433369;28;657371;-74
2023/01/22 09:00:57;;;;;;;30.70;15.07;;;1.10;99.90;;;;;;4446306;28;658432;-73
2023/01/22 09:03:45;;;;;;;34.23;16.80;;;1.00;99.90;;;;;;4432578;28;657249;-74
2023/01/22 09:06:33;;;;;;;30.30;16.17;;;1.10;99.90;;;;;;4419679;28;658897;-74
2023/01/22 09:09:20;;;;;;;34.57;17.63;;;1.10;99.90;;;;;;4420879;28;657684;-74
2023/01/22 09:12:08;;;;;;;45.63;20.00;;;1.20;99.90;;;;;;4441372;28;659054;-74
2023/01/22 09:14:55;;;;;;;38.20;19.23;;;1.30;99.90;;;;;;4422420;28;657751;-74
2023/01/22 09:17:42;;;;;;;32.00;16.97;;;1.30;99.90;;;;;;4439917;28;658301;-73
2023/01/22 09:20:30;;;;;;;34.47;17.43;;;1.30;99.90;;;;;;4432326;28;657910;-74
2023/01/22 09:23:21;;;;;;;31.30;15.03;;;1.30;99.90;;;;;;4439356;28;658776;-74
2023/01/22 09:26:08;;;;;;;37.50;17.93;;;1.50;99.90;;;;;;4405630;28;657839;-73
2023/01/22 09:28:56;;;;;;;45.15;20.88;;;1.60;99.90;;;;;;4418566;28;657228;-74
2023/01/22 09:31:44;;;;;;;42.00;18.87;;;1.60;99.90;;;;;;4436449;28;657629;-73
2023/01/22 09:34:32;;;;;;;37.13;17.07;;;1.80;99.90;;;;;;4416536;28;658109;-74
2023/01/22 09:37:19;;;;;;;33.30;17.33;;;1.80;99.90;;;;;;4437781;28;657641;-74
2023/01/22 09:40:10;;;;;;;34.83;16.92;;;1.80;99.90;;;;;;4424922;28;658641;-73
2023/01/22 09:43:04;;;;;;;34.60;18.50;;;1.70;99.90;;;;;;4416447;28;658471;-74
2023/01/22 09:45:52;;;;;;;37.90;17.43;;;1.60;99.90;;;;;;4394497;28;658515;-74
2023/01/22 09:48:41;;;;;;;34.77;17.00;;;1.60;99.90;;;;;;4431305;28;657712;-73
2023/01/22 09:51:28;;;;;;;42.57;19.70;;;1.60;99.90;;;;;;4420484;28;657689;-74
2023/01/22 09:54:16;;;;;;;32.67;16.80;;;1.60;99.90;;;;;;4407676;28;657892;-73
2023/01/22 09:57:06;;;;;;;28.73;15.00;;;1.70;99.90;;;;;;4447295;28;656867;-73
2023/01/22 09:59:54;;;;;;;29.93;14.07;;;1.70;99.90;;;;;;4419581;28;658057;-74
2023/01/22 10:02:44;;;;;;;24.87;13.17;;;1.60;99.90;;;;;;4417106;28;658115;-74
2023/01/22 10:05:34;;;;;;;40.75;20.02;;;1.60;99.90;;;;;;4408914;28;658000;-75
2023/01/22 10:08:23;;;;;;;33.60;16.23;;;1.80;99.90;;;;;;4415891;28;657531;-74
2023/01/22 10:11:10;;;;;;;41.67;18.23;;;2.00;99.90;;;;;;4423261;28;657786;-74
2023/01/22 10:14:02;;;;;;;33.73;16.07;;;2.10;99.90;;;;;;4439898;28;657680;-73
2023/01/22 10:16:49;;;;;;;31.87;15.00;;;2.30;99.90;;;;;;4412588;28;657133;-74
2023/01/22 10:19:40;;;;;;;30.60;14.77;;;2.40;99.90;;;;;;4416032;28;657847;-74
2023/01/22 10:22:27;;;;;;;33.03;15.93;;;2.60;99.90;;;;;;4414220;28;659077;-74
2023/01/22 10:25:15;;;;;;;24.80;13.82;;;2.60;99.90;;;;;;4440698;28;658133;-74
2023/01/22 10:28:03;;;;;;;26.77;14.50;;;2.80;99.90;;;;;;4413484;28;659223;-74
2023/01/22 10:30:56;;;;;;;25.30;14.03;;;3.00;99.90;;;;;;4428514;28;658016;-75
2023/01/22 10:33:44;;;;;;;22.60;11.88;;;3.00;99.90;;;;;;4413981;28;657653;-75
2023/01/22 10:36:31;;;;;;;22.50;11.67;;;2.90;99.90;;;;;;4412765;28;657965;-75
2023/01/22 10:39:19;;;;;;;24.90;12.40;;;2.60;99.90;;;;;;4441968;28;657739;-75
2023/01/22 10:42:06;;;;;;;22.60;12.23;;;2.60;99.90;;;;;;4416006;28;658487;-75
2023/01/22 10:44:55;;;;;;;25.57;12.70;;;2.60;99.90;;;;;;4428084;28;658297;-74
2023/01/22 10:47:44;;;;;;;27.77;15.20;;;2.60;99.90;;;;;;4404430;28;657598;-74
2023/01/22 10:50:31;;;;;;;25.57;13.10;;;2.50;99.90;;;;;;4422238;28;657656;-75
2023/01/22 10:53:21;;;;;;;31.20;14.60;;;2.30;99.90;;;;;;4446257;28;658674;-74
2023/01/22 10:56:09;;;;;;;28.03;15.10;;;2.40;99.90;;;;;;4402221;28;658521;-74
2023/01/22 10:58:56;;;;;;;34.70;14.50;;;2.30;99.90;;;;;;4416287;28;657585;-75
2023/01/22 11:01:44;;;;;;;30.40;13.67;;;2.10;99.90;;;;;;4436762;28;658646;-74
2023/01/22 11:04:33;;;;;;;36.27;15.80;;;2.00;99.90;;;;;;4409101;28;657645;-75
2023/01/22 11:07:21;;;;;;;38.43;17.33;;;2.00;99.90;;;;;;4407904;28;657381;-76
2023/01/22 11:10:10;;;;;;;72.40;24.43;;;2.10;99.90;;;;;;4433738;28;657806;-76
2023/01/22 11:12:59;;;;;;;27.70;13.77;;;2.10;99.90;;;;;;4412559;28;658391;-75
2023/01/22 11:15:48;;;;;;;30.08;13.77;;;2.10;99.90;;;;;;4410255;28;657412;-75
2023/01/22 11:18:36;;;;;;;22.80;12.80;;;2.10;99.90;;;;;;4418337;28;657859;-75
2023/01/22 11:21:27;;;;;;;27.90;14.25;;;2.10;99.90;;;;;;4432367;28;658551;-75
2023/01/22 11:24:18;;;;;;;26.57;12.13;;;2.10;99.90;;;;;;4421450;28;657094;-75
2023/01/22 11:27:13;;;;;;;32.83;14.33;;;2.00;99.90;;;;;;4408098;28;658166;-75
2023/01/22 11:30:13;;;;;;;26.53;13.57;;;2.00;99.90;;;;;;4426416;28;657723;-75
2023/01/22 11:33:04;;;;;;;26.23;13.10;;;1.80;99.90;;;;;;4402568;28;657979;-75
2023/01/22 11:35:53;;;;;;;21.27;10.37;;;1.80;99.90;;;;;;4411118;28;657790;-74
2023/01/22 11:38:45;;;;;;;27.40;12.27;;;1.80;99.90;;;;;;4409329;28;657621;-75
2023/01/22 11:41:54;;;;;;;23.63;11.77;;;1.80;99.90;;;;;;4410009;28;657752;-75
2023/01/22 11:44:49;;;;;;;24.03;13.20;;;1.80;99.90;;;;;;4412921;28;657366;-76
2023/01/22 11:47:57;;;;;;;24.10;12.90;;;1.80;99.90;;;;;;4424189;28;657864;-75
2023/01/22 11:50:46;;;;;;;24.87;11.80;;;1.80;99.90;;;;;;4412768;28;657859;-75
2023/01/22 11:53:47;;;;;;;25.00;12.63;;;1.60;99.90;;;;;;4406313;28;658731;-74
2023/01/22 11:56:55;;;;;;;28.83;12.93;;;1.70;99.90;;;;;;4407466;28;657687;-74
2023/01/22 11:59:54;;;;;;;22.87;11.53;;;1.70;99.90;;;;;;4420428;28;657756;-74
2023/01/22 12:03:10;;;;;;;28.07;13.20;;;1.70;99.90;;;;;;4380810;28;657686;-75
2023/01/22 12:06:05;;;;;;;25.60;13.63;;;1.70;99.90;;;;;;4407721;28;657937;-75
2023/01/22 12:08:58;;;;;;;27.43;14.00;;;1.70;99.90;;;;;;4410210;28;657354;-75
2023/01/22 12:12:07;;;;;;;30.93;13.90;;;1.70;99.90;;;;;;4421357;28;657958;-75
2023/01/22 12:15:13;;;;;;;26.73;13.00;;;1.60;99.90;;;;;;4408147;28;657701;-75
2023/01/22 12:18:08;;;;;;;33.27;16.30;;;1.70;99.90;;;;;;4390427;28;657278;-75
2023/01/22 12:21:07;;;;;;;36.83;18.60;;;1.60;99.90;;;;;;4387524;28;657636;-75
2023/01/22 12:23:59;;;;;;;30.70;13.30;;;1.70;99.90;;;;;;4413830;28;657996;-74
2023/01/22 12:26:47;;;;;;;41.23;17.60;;;1.70;99.90;;;;;;4417740;28;657333;-75
2023/01/22 12:29:39;;;;;;;41.70;18.53;;;1.80;99.90;;;;;;4423622;28;657495;-76
2023/01/22 12:32:26;;;;;;;34.37;15.53;;;1.70;99.90;;;;;;4410610;28;658714;-74
2023/01/22 12:35:16;;;;;;;46.97;17.90;;;1.70;99.90;;;;;;4443052;28;657742;-74
2023/01/22 12:38:06;;;;;;;33.73;14.57;;;1.60;99.90;;;;;;4407523;28;657978;-74
2023/01/22 12:41:03;;;;;;;37.67;16.17;;;1.60;99.90;;;;;;4411264;28;658432;-74
2023/01/22 12:43:52;;;;;;;45.43;18.17;;;1.50;99.90;;;;;;4396067;28;657807;-75
2023/01/22 12:46:46;;;;;;;46.53;18.97;;;1.50;99.90;;;;;;4425729;28;657654;-74
2023/01/22 12:49:33;;;;;;;37.37;15.57;;;1.50;99.90;;;;;;4415224;28;658196;-74
2023/01/22 12:52:32;;;;;;;39.77;16.17;;;1.50;99.90;;;;;;4428016;28;657706;-75
2023/01/22 12:55:28;;;;;;;44.70;16.90;;;1.50;99.90;;;;;;4416304;28;658186;-74
2023/01/22 12:58:22;;;;;;;45.83;19.47;;;1.50;99.90;;;;;;4419986;28;658225;-74
2023/01/22 13:01:22;;;;;;;46.07;21.00;;;1.50;99.90;;;;;;4420712;28;657976;-74
2023/01/22 13:04:11;;;;;;;59.73;24.30;;;1.60;99.90;;;;;;4419232;28;657551;-74
2023/01/22 13:07:06;;;;;;;50.53;20.93;;;1.60;99.90;;;;;;4424027;28;657954;-74
2023/01/22 13:10:01;;;;;;;45.03;20.67;;;1.60;99.90;;;;;;4417645;28;657716;-74
2023/01/22 13:12:49;;;;;;;64.07;25.17;;;1.60;99.90;;;;;;4416574;28;657633;-74
2023/01/22 13:15:38;;;;;;;50.97;24.13;;;1.70;99.90;;;;;;4413258;28;658590;-74
2023/01/22 13:18:27;;;;;;;45.33;19.60;;;1.70;99.90;;;;;;4412887;28;658051;-75
2023/01/22 13:21:16;;;;;;;48.97;19.73;;;1.70;99.90;;;;;;4436097;28;657766;-74
2023/01/22 13:24:05;;;;;;;73.47;30.50;;;1.60;99.90;;;;;;4420330;28;657588;-74
2023/01/22 13:26:55;;;;;;;48.30;22.03;;;1.60;99.90;;;;;;4419923;28;658359;-74
2023/01/22 13:29:44;;;;;;;39.97;17.43;;;1.60;99.90;;;;;;4416653;28;658512;-74
2023/01/22 13:32:33;;;;;;;43.20;17.57;;;1.50;99.90;;;;;;4411347;28;657912;-74
2023/01/22 13:35:20;;;;;;;48.55;20.85;;;1.60;99.90;;;;;;4417159;28;657720;-74
2023/01/22 13:38:16;;;;;;;49.03;19.90;;;1.50;99.90;;;;;;4446607;28;658214;-74
2023/01/22 13:41:06;;;;;;;85.80;32.93;;;1.50;99.90;;;;;;4419591;28;657994;-74
2023/01/22 13:43:54;;;;;;;66.40;28.37;;;1.50;99.90;;;;;;4419074;28;657637;-75
2023/01/22 13:46:41;;;;;;;58.03;26.67;;;1.50;99.90;;;;;;4417227;28;657709;-75
2023/01/22 13:49:30;;;;;;;41.37;20.00;;;1.50;99.90;;;;;;4436360;28;657642;-75
2023/01/22 13:52:18;;;;;;;59.03;26.63;;;1.50;99.90;;;;;;4413128;28;657757;-75
2023/01/22 13:55:15;;;;;;;50.03;22.03;;;1.50;99.90;;;;;;4420348;28;657382;-74
2023/01/22 13:58:04;;;;;;;115.23;41.93;;;1.50;99.90;;;;;;4408633;28;657547;-74
2023/01/22 14:00:52;;;;;;;56.67;24.83;;;1.50;99.90;;;;;;4411083;28;658501;-74
2023/01/22 14:03:39;;;;;;;48.00;22.57;;;1.50;99.90;;;;;;4433977;28;657480;-73
2023/01/22 14:06:28;;;;;;;173.70;23.07;;;1.60;99.90;;;;;;4414041;28;657948;-73
2023/01/22 14:09:25;;;;;;;39.80;18.87;;;1.60;99.90;;;;;;4417146;28;658731;-74
2023/01/22 14:12:14;;;;;;;40.03;19.40;;;1.60;99.90;;;;;;4415961;28;657657;-74
2023/01/22 14:15:01;;;;;;;40.67;19.23;;;1.70;99.90;;;;;;4421333;28;658729;-75
2023/01/22 14:17:48;;;;;;;43.17;20.10;;;1.70;99.90;;;;;;4445007;28;658261;-73
2023/01/22 14:20:37;;;;;;;36.53;17.93;;;1.70;99.90;;;;;;4414099;28;657766;-72